sensor_id;sensor_type;location;lat;lon;timestamp;pressure;altitude;pressure_sealevel;temperature;humidity
25420;BME280;13354;48.174;11.566;2023-07-24T00:01:47;95138.16;;;22.12;57.10
25420;BME280;13354;48.174;11.566;2023-07-24T00:04:12;95131.69;;;22.13;57.33
25420;BME280;13354;48.174;11.566;2023-07-24T00:06:38;95131.13;;;22.16;57.51
25420;BME280;13354;48.174;11.566;2023-07-24T00:09:03;95126.03;;;22.14;57.71
25420;BME280;13354;48.174;11.566;2023-07-24T00:11:28;95121.97;;;22.12;57.84
25420;BME280;13354;48.174;11.566;2023-07-24T00:13:54;95119.56;;;22.10;58.13
25420;BME280;13354;48.174;11.566;2023-07-24T00:16:19;95120.91;;;22.08;57.80
25420;BME280;13354;48.174;11.566;2023-07-24T00:18:44;95109.31;;;22.17;57.55
25420;BME280;13354;48.174;11.566;2023-07-24T00:21:10;95109.03;;;22.09;57.80
25420;BME280;13354;48.174;11.566;2023-07-24T00:23:36;95108.25;;;22.08;58.08
25420;BME280;13354;48.174;11.566;2023-07-24T00:26:01;95105.47;;;22.29;57.11
25420;BME280;13354;48.174;11.566;2023-07-24T00:28:26;95097.44;;;22.18;56.89
25420;BME280;13354;48.174;11.566;2023-07-24T00:30:52;95088.00;;;22.11;57.16
25420;BME280;13354;48.174;11.566;2023-07-24T00:33:17;95093.16;;;22.07;57.66
25420;BME280;13354;48.174;11.566;2023-07-24T00:35:42;95088.59;;;22.03;58.10
25420;BME280;13354;48.174;11.566;2023-07-24T00:38:08;95084.28;;;22.02;57.90
25420;BME280;13354;48.174;11.566;2023-07-24T00:40:33;95082.63;;;22.16;57.06
25420;BME280;13354;48.174;11.566;2023-07-24T00:42:59;95077.78;;;22.08;57.12
25420;BME280;13354;48.174;11.566;2023-07-24T00:45:24;95075.72;;;21.94;57.82
25420;BME280;13354;48.174;11.566;2023-07-24T00:47:50;95084.63;;;21.90;58.12
25420;BME280;13354;48.174;11.566;2023-07-24T00:50:16;95073.59;;;21.86;58.58
25420;BME280;13354;48.174;11.566;2023-07-24T00:52:42;95076.84;;;21.83;58.16
25420;BME280;13354;48.174;11.566;2023-07-24T00:55:09;95072.78;;;21.86;58.15
25420;BME280;13354;48.174;11.566;2023-07-24T00:57:34;95077.41;;;21.80;58.18
25420;BME280;13354;48.174;11.566;2023-07-24T01:00:00;95073.66;;;21.76;59.20
25420;BME280;13354;48.174;11.566;2023-07-24T01:02:25;95078.28;;;21.65;59.60
25420;BME280;13354;48.174;11.566;2023-07-24T01:04:51;95073.97;;;21.69;59.30
25420;BME280;13354;48.174;11.566;2023-07-24T01:07:16;95068.56;;;21.69;59.12
25420;BME280;13354;48.174;11.566;2023-07-24T01:09:42;95068.84;;;21.68;59.20
25420;BME280;13354;48.174;11.566;2023-07-24T01:12:28;95067.78;;;21.64;59.54
25420;BME280;13354;48.174;11.566;2023-07-24T01:15:10;95062.94;;;21.61;59.98
25420;BME280;13354;48.174;11.566;2023-07-24T01:17:44;95057.56;;;21.61;59.61
25420;BME280;13354;48.174;11.566;2023-07-24T01:20:11;95059.75;;;21.49;60.66
25420;BME280;13354;48.174;11.566;2023-07-24T01:22:57;95058.75;;;21.39;60.93
25420;BME280;13354;48.174;11.566;2023-07-24T01:25:33;95056.84;;;21.35;60.71
25420;BME280;13354;48.174;11.566;2023-07-24T01:28:06;95047.97;;;21.34;60.56
25420;BME280;13354;48.174;11.566;2023-07-24T01:30:32;95047.16;;;21.29;60.28
25420;BME280;13354;48.174;11.566;2023-07-24T01:32:57;95044.22;;;21.25;60.75
25420;BME280;13354;48.174;11.566;2023-07-24T01:35:23;95045.81;;;21.26;60.89
25420;BME280;13354;48.174;11.566;2023-07-24T01:37:49;95032.06;;;21.28;60.68
25420;BME280;13354;48.174;11.566;2023-07-24T01:40:15;95012.72;;;21.26;61.14
25420;BME280;13354;48.174;11.566;2023-07-24T01:42:40;95013.25;;;21.22;61.39
25420;BME280;13354;48.174;11.566;2023-07-24T01:45:06;95014.06;;;21.23;61.14
25420;BME280;13354;48.174;11.566;2023-07-24T01:47:32;95022.69;;;21.25;61.11
25420;BME280;13354;48.174;11.566;2023-07-24T01:49:57;95040.69;;;21.30;60.34
25420;BME280;13354;48.174;11.566;2023-07-24T01:52:23;95037.97;;;21.45;59.42
25420;BME280;13354;48.174;11.566;2023-07-24T01:54:48;95046.25;;;21.54;58.91
25420;BME280;13354;48.174;11.566;2023-07-24T01:57:13;95054.13;;;21.45;59.81
25420;BME280;13354;48.174;11.566;2023-07-24T01:59:38;95064.59;;;21.46;59.94
25420;BME280;13354;48.174;11.566;2023-07-24T02:02:04;95061.38;;;21.55;59.67
25420;BME280;13354;48.174;11.566;2023-07-24T02:04:29;95071.06;;;21.56;59.72
25420;BME280;13354;48.174;11.566;2023-07-24T02:06:55;95066.63;;;21.80;58.30
25420;BME280;13354;48.174;11.566;2023-07-24T02:09:20;95049.63;;;21.85;57.47
25420;BME280;13354;48.174;11.566;2023-07-24T02:11:46;95055.28;;;21.83;57.96
25420;BME280;13354;48.174;11.566;2023-07-24T02:14:12;95051.78;;;21.88;58.48
25420;BME280;13354;48.174;11.566;2023-07-24T02:16:38;95049.31;;;21.91;57.96
25420;BME280;13354;48.174;11.566;2023-07-24T02:19:03;95046.59;;;21.97;58.13
25420;BME280;13354;48.174;11.566;2023-07-24T02:21:28;95042.06;;;21.87;58.93
25420;BME280;13354;48.174;11.566;2023-07-24T02:23:54;95051.09;;;21.62;59.91
25420;BME280;13354;48.174;11.566;2023-07-24T02:26:19;95060.81;;;21.53;59.99
25420;BME280;13354;48.174;11.566;2023-07-24T02:28:44;95068.66;;;21.54;59.98
25420;BME280;13354;48.174;11.566;2023-07-24T02:31:10;95116.03;;;21.55;60.04
25420;BME280;13354;48.174;11.566;2023-07-24T02:33:35;95131.88;;;21.67;59.06
25420;BME280;13354;48.174;11.566;2023-07-24T02:36:00;95143.44;;;21.78;58.19
25420;BME280;13354;48.174;11.566;2023-07-24T02:38:26;95143.47;;;21.67;58.43
25420;BME280;13354;48.174;11.566;2023-07-24T02:40:51;95125.94;;;21.65;58.36
25420;BME280;13354;48.174;11.566;2023-07-24T02:43:17;95115.16;;;21.65;58.23
25420;BME280;13354;48.174;11.566;2023-07-24T02:45:42;95120.31;;;21.61;58.24
25420;BME280;13354;48.174;11.566;2023-07-24T02:48:07;95102.00;;;21.63;58.73
25420;BME280;13354;48.174;11.566;2023-07-24T02:50:33;95077.78;;;21.58;59.29
25420;BME280;13354;48.174;11.566;2023-07-24T02:52:59;95059.22;;;21.46;59.94
25420;BME280;13354;48.174;11.566;2023-07-24T02:55:25;95061.41;;;21.44;59.99
25420;BME280;13354;48.174;11.566;2023-07-24T02:57:50;95067.06;;;21.33;60.38
25420;BME280;13354;48.174;11.566;2023-07-24T03:00:16;95085.91;;;21.28;60.78
25420;BME280;13354;48.174;11.566;2023-07-24T03:02:41;95110.19;;;21.17;61.64
25420;BME280;13354;48.174;11.566;2023-07-24T03:05:07;95154.03;;;21.13;61.16
25420;BME280;13354;48.174;11.566;2023-07-24T03:07:32;95224.34;;;21.37;59.95
25420;BME280;13354;48.174;11.566;2023-07-24T03:09:58;95271.72;;;21.38;60.13
25420;BME280;13354;48.174;11.566;2023-07-24T03:12:23;95306.13;;;21.20;63.27
25420;BME280;13354;48.174;11.566;2023-07-24T03:14:49;95312.84;;;21.13;64.92
25420;BME280;13354;48.174;11.566;2023-07-24T03:17:14;95379.25;;;20.87;66.50
25420;BME280;13354;48.174;11.566;2023-07-24T03:19:41;95354.72;;;20.68;67.02
25420;BME280;13354;48.174;11.566;2023-07-24T03:22:06;95334.50;;;20.55;68.68
25420;BME280;13354;48.174;11.566;2023-07-24T03:24:31;95305.22;;;20.64;69.02
25420;BME280;13354;48.174;11.566;2023-07-24T03:26:57;95288.53;;;20.62;70.11
25420;BME280;13354;48.174;11.566;2023-07-24T03:29:22;95248.97;;;20.57;70.29
25420;BME280;13354;48.174;11.566;2023-07-24T03:31:47;95225.03;;;20.50;70.76
25420;BME280;13354;48.174;11.566;2023-07-24T03:34:13;95196.56;;;20.55;71.24
25420;BME280;13354;48.174;11.566;2023-07-24T03:36:38;95157.03;;;20.55;71.58
25420;BME280;13354;48.174;11.566;2023-07-24T03:39:06;95166.38;;;20.42;73.58
25420;BME280;13354;48.174;11.566;2023-07-24T03:41:32;95149.44;;;20.47;73.97
25420;BME280;13354;48.174;11.566;2023-07-24T03:43:57;95140.09;;;20.55;73.30
25420;BME280;13354;48.174;11.566;2023-07-24T03:46:22;95096.22;;;20.49;73.82
25420;BME280;13354;48.174;11.566;2023-07-24T03:48:48;95059.91;;;20.46;74.51
25420;BME280;13354;48.174;11.566;2023-07-24T03:51:15;95070.41;;;20.48;74.79
25420;BME280;13354;48.174;11.566;2023-07-24T03:53:40;95069.34;;;20.44;75.24
25420;BME280;13354;48.174;11.566;2023-07-24T03:56:05;95063.13;;;20.38;75.21
25420;BME280;13354;48.174;11.566;2023-07-24T03:58:30;95071.22;;;20.33;75.72
25420;BME280;13354;48.174;11.566;2023-07-24T04:00:56;95061.78;;;20.31;75.51
25420;BME280;13354;48.174;11.566;2023-07-24T04:03:21;95063.13;;;20.28;75.82
25420;BME280;13354;48.174;11.566;2023-07-24T04:05:46;95052.63;;;20.32;76.06
25420;BME280;13354;48.174;11.566;2023-07-24T04:08:12;95055.34;;;20.37;75.73
25420;BME280;13354;48.174;11.566;2023-07-24T04:10:37;95061.78;;;20.20;77.51
25420;BME280;13354;48.174;11.566;2023-07-24T04:13:02;95052.34;;;20.13;79.09
25420;BME280;13354;48.174;11.566;2023-07-24T04:15:28;95041.88;;;20.06;79.83
25420;BME280;13354;48.174;11.566;2023-07-24T04:17:53;95034.59;;;20.07;80.69
25420;BME280;13354;48.174;11.566;2023-07-24T04:20:18;95014.47;;;20.09;80.52
25420;BME280;13354;48.174;11.566;2023-07-24T04:22:43;95014.22;;;20.11;79.62
25420;BME280;13354;48.174;11.566;2023-07-24T04:25:09;95011.25;;;20.07;80.69
25420;BME280;13354;48.174;11.566;2023-07-24T04:27:34;95058.53;;;20.08;81.37
25420;BME280;13354;48.174;11.566;2023-07-24T04:29:59;95068.94;;;19.84;83.83
25420;BME280;13354;48.174;11.566;2023-07-24T04:32:26;95103.91;;;19.89;82.81
25420;BME280;13354;48.174;11.566;2023-07-24T04:34:52;95089.13;;;19.92;83.21
25420;BME280;13354;48.174;11.566;2023-07-24T04:37:18;95122.44;;;19.86;83.94
25420;BME280;13354;48.174;11.566;2023-07-24T04:39:43;95125.97;;;19.96;82.32
25420;BME280;13354;48.174;11.566;2023-07-24T04:42:08;95096.09;;;19.88;82.73
25420;BME280;13354;48.174;11.566;2023-07-24T04:44:34;95076.75;;;19.86;83.13
25420;BME280;13354;48.174;11.566;2023-07-24T04:46:59;95094.44;;;19.76;84.20
25420;BME280;13354;48.174;11.566;2023-07-24T04:49:25;95082.66;;;19.83;83.96
25420;BME280;13354;48.174;11.566;2023-07-24T04:51:50;95078.09;;;19.88;83.93
25420;BME280;13354;48.174;11.566;2023-07-24T04:54:17;95078.63;;;19.80;84.72
25420;BME280;13354;48.174;11.566;2023-07-24T04:56:42;95089.06;;;19.71;85.85
25420;BME280;13354;48.174;11.566;2023-07-24T04:59:08;95110.03;;;19.74;86.71
25420;BME280;13354;48.174;11.566;2023-07-24T05:01:33;95106.28;;;19.81;84.67
25420;BME280;13354;48.174;11.566;2023-07-24T05:03:58;95101.94;;;19.69;85.34
25420;BME280;13354;48.174;11.566;2023-07-24T05:06:24;95097.94;;;19.67;85.34
25420;BME280;13354;48.174;11.566;2023-07-24T05:08:49;95103.59;;;19.75;86.21
25420;BME280;13354;48.174;11.566;2023-07-24T05:11:14;95100.09;;;19.75;84.37
25420;BME280;13354;48.174;11.566;2023-07-24T05:13:40;95093.06;;;19.64;84.66
25420;BME280;13354;48.174;11.566;2023-07-24T05:16:05;95093.06;;;19.64;85.31
25420;BME280;13354;48.174;11.566;2023-07-24T05:18:30;95079.66;;;19.64;85.76
25420;BME280;13354;48.174;11.566;2023-07-24T05:20:56;95080.13;;;19.61;86.14
25420;BME280;13354;48.174;11.566;2023-07-24T05:23:21;95079.06;;;19.62;86.47
25420;BME280;13354;48.174;11.566;2023-07-24T05:25:46;95056.28;;;19.69;85.78
25420;BME280;13354;48.174;11.566;2023-07-24T05:28:12;95055.22;;;19.65;85.74
25420;BME280;13354;48.174;11.566;2023-07-24T05:30:37;95052.53;;;19.65;85.60
25420;BME280;13354;48.174;11.566;2023-07-24T05:33:02;95048.78;;;19.66;85.48
25420;BME280;13354;48.174;11.566;2023-07-24T05:35:28;95052.81;;;19.64;85.38
25420;BME280;13354;48.174;11.566;2023-07-24T05:37:53;95040.97;;;19.65;85.25
25420;BME280;13354;48.174;11.566;2023-07-24T05:40:18;95043.97;;;19.78;84.78
25420;BME280;13354;48.174;11.566;2023-07-24T05:42:43;95044.78;;;19.84;83.35
25420;BME280;13354;48.174;11.566;2023-07-24T05:45:09;95038.06;;;19.87;83.79
25420;BME280;13354;48.174;11.566;2023-07-24T05:47:36;95044.56;;;20.01;83.18
25420;BME280;13354;48.174;11.566;2023-07-24T05:50:01;95028.44;;;20.01;83.12
25420;BME280;13354;48.174;11.566;2023-07-24T05:52:27;95033.81;;;20.16;81.04
25420;BME280;13354;48.174;11.566;2023-07-24T05:54:52;95034.88;;;20.20;80.38
25420;BME280;13354;48.174;11.566;2023-07-24T05:57:17;95033.56;;;20.28;78.96
25420;BME280;13354;48.174;11.566;2023-07-24T05:59:43;95027.66;;;20.41;79.08
25420;BME280;13354;48.174;11.566;2023-07-24T06:02:08;95025.75;;;20.42;78.73
25420;BME280;13354;48.174;11.566;2023-07-24T06:04:34;95020.69;;;20.56;77.22
25420;BME280;13354;48.174;11.566;2023-07-24T06:06:59;95008.28;;;20.65;78.04
25420;BME280;13354;48.174;11.566;2023-07-24T06:09:25;94991.06;;;20.71;76.21
25420;BME280;13354;48.174;11.566;2023-07-24T06:11:50;94978.09;;;20.93;75.23
25420;BME280;13354;48.174;11.566;2023-07-24T06:14:15;94998.22;;;21.11;74.17
25420;BME280;13354;48.174;11.566;2023-07-24T06:16:40;95001.41;;;21.23;73.16
25420;BME280;13354;48.174;11.566;2023-07-24T06:19:06;95016.22;;;21.36;71.26
25420;BME280;13354;48.174;11.566;2023-07-24T06:21:31;95023.91;;;21.53;70.74
25420;BME280;13354;48.174;11.566;2023-07-24T06:23:56;95017.50;;;21.44;70.47
25420;BME280;13354;48.174;11.566;2023-07-24T06:26:22;94996.47;;;21.46;70.31
25420;BME280;13354;48.174;11.566;2023-07-24T06:28:47;94991.91;;;21.46;70.98
25420;BME280;13354;48.174;11.566;2023-07-24T06:31:12;94978.63;;;21.60;70.58
25420;BME280;13354;48.174;11.566;2023-07-24T06:33:38;94965.66;;;21.67;69.70
25420;BME280;13354;48.174;11.566;2023-07-24T06:36:03;94966.22;;;21.64;69.92
25420;BME280;13354;48.174;11.566;2023-07-24T06:38:29;94966.69;;;21.77;68.60
25420;BME280;13354;48.174;11.566;2023-07-24T06:40:54;94968.19;;;21.93;66.41
25420;BME280;13354;48.174;11.566;2023-07-24T06:43:19;94966.72;;;22.11;66.67
25420;BME280;13354;48.174;11.566;2023-07-24T06:45:45;94968.81;;;22.19;65.91
25420;BME280;13354;48.174;11.566;2023-07-24T06:48:10;94977.88;;;22.33;64.69
25420;BME280;13354;48.174;11.566;2023-07-24T06:50:35;94982.66;;;22.41;64.33
25420;BME280;13354;48.174;11.566;2023-07-24T06:53:01;94991.94;;;22.59;63.00
25420;BME280;13354;48.174;11.566;2023-07-24T06:55:26;95007.59;;;22.86;62.16
25420;BME280;13354;48.174;11.566;2023-07-24T06:57:51;95003.44;;;22.99;60.59
25420;BME280;13354;48.174;11.566;2023-07-24T07:00:17;94994.25;;;23.24;61.11
25420;BME280;13354;48.174;11.566;2023-07-24T07:02:42;94981.47;;;23.54;58.99
25420;BME280;13354;48.174;11.566;2023-07-24T07:05:07;94983.19;;;23.69;58.40
25420;BME280;13354;48.174;11.566;2023-07-24T07:07:33;94992.09;;;24.07;58.59
25420;BME280;13354;48.174;11.566;2023-07-24T07:09:58;94997.97;;;24.47;56.93
25420;BME280;13354;48.174;11.566;2023-07-24T07:12:23;95013.47;;;24.74;55.02
25420;BME280;13354;48.174;11.566;2023-07-24T07:14:49;95026.94;;;24.93;53.21
25420;BME280;13354;48.174;11.566;2023-07-24T07:17:14;95042.16;;;24.89;52.45
25420;BME280;13354;48.174;11.566;2023-07-24T07:19:40;95058.78;;;25.15;52.44
25420;BME280;13354;48.174;11.566;2023-07-24T07:22:05;95072.81;;;24.70;52.68
25420;BME280;13354;48.174;11.566;2023-07-24T07:24:30;95088.47;;;24.73;53.55
25420;BME280;13354;48.174;11.566;2023-07-24T07:26:56;95102.38;;;24.48;54.82
25420;BME280;13354;48.174;11.566;2023-07-24T07:29:21;95118.91;;;24.65;54.56
25420;BME280;13354;48.174;11.566;2023-07-24T07:31:46;95183.88;;;24.46;55.44
25420;BME280;13354;48.174;11.566;2023-07-24T07:34:12;95192.28;;;24.21;57.06
25420;BME280;13354;48.174;11.566;2023-07-24T07:36:37;95192.66;;;23.61;57.49
25420;BME280;13354;48.174;11.566;2023-07-24T07:39:02;95220.03;;;23.54;59.78
25420;BME280;13354;48.174;11.566;2023-07-24T07:41:28;95224.81;;;22.99;65.27
25420;BME280;13354;48.174;11.566;2023-07-24T07:43:54;95230.00;;;22.36;69.10
25420;BME280;13354;48.174;11.566;2023-07-24T07:46:19;95209.66;;;21.99;71.83
25420;BME280;13354;48.174;11.566;2023-07-24T07:48:45;95197.84;;;21.85;72.93
25420;BME280;13354;48.174;11.566;2023-07-24T07:51:11;95207.63;;;21.35;75.41
25420;BME280;13354;48.174;11.566;2023-07-24T07:53:37;95211.13;;;21.25;77.18
25420;BME280;13354;48.174;11.566;2023-07-24T07:56:03;95203.84;;;21.20;78.00
25420;BME280;13354;48.174;11.566;2023-07-24T07:58:29;95211.66;;;21.07;79.19
25420;BME280;13354;48.174;11.566;2023-07-24T08:00:55;95206.53;;;20.90;78.65
25420;BME280;13354;48.174;11.566;2023-07-24T08:03:20;95196.84;;;20.94;79.13
25420;BME280;13354;48.174;11.566;2023-07-24T08:05:46;95207.09;;;21.07;78.86
25420;BME280;13354;48.174;11.566;2023-07-24T08:08:11;95203.31;;;21.08;77.99
25420;BME280;13354;48.174;11.566;2023-07-24T08:10:38;95207.63;;;21.14;77.83
25420;BME280;13354;48.174;11.566;2023-07-24T08:13:03;95196.59;;;21.21;78.80
25420;BME280;13354;48.174;11.566;2023-07-24T08:15:28;95196.31;;;21.17;78.73
25420;BME280;13354;48.174;11.566;2023-07-24T08:17:54;95189.31;;;21.37;78.78
25420;BME280;13354;48.174;11.566;2023-07-24T08:20:19;95199.25;;;21.31;79.22
25420;BME280;13354;48.174;11.566;2023-07-24T08:22:44;95177.72;;;21.46;78.46
25420;BME280;13354;48.174;11.566;2023-07-24T08:25:09;95181.50;;;21.40;77.57
25420;BME280;13354;48.174;11.566;2023-07-24T08:27:35;95171.53;;;21.46;76.66
25420;BME280;13354;48.174;11.566;2023-07-24T08:30:00;95155.34;;;21.56;76.49
25420;BME280;13354;48.174;11.566;2023-07-24T08:32:25;95134.84;;;21.65;74.92
25420;BME280;13354;48.174;11.566;2023-07-24T08:34:51;95122.97;;;21.71;74.01
25420;BME280;13354;48.174;11.566;2023-07-24T08:37:16;95108.97;;;21.64;73.60
25420;BME280;13354;48.174;11.566;2023-07-24T08:39:43;95104.97;;;21.57;73.83
25420;BME280;13354;48.174;11.566;2023-07-24T08:42:10;95094.69;;;21.74;73.36
25420;BME280;13354;48.174;11.566;2023-07-24T08:44:36;95094.94;;;21.78;73.32
25420;BME280;13354;48.174;11.566;2023-07-24T08:47:03;95052.03;;;21.91;71.80
25420;BME280;13354;48.174;11.566;2023-07-24T08:49:29;95037.94;;;22.00;70.26
25420;BME280;13354;48.174;11.566;2023-07-24T08:51:55;95022.75;;;22.19;70.14
25420;BME280;13354;48.174;11.566;2023-07-24T08:54:22;95013.06;;;22.18;69.91
25420;BME280;13354;48.174;11.566;2023-07-24T08:56:50;95021.09;;;22.23;70.10
25420;BME280;13354;48.174;11.566;2023-07-24T08:59:16;95031.22;;;22.02;71.84
25420;BME280;13354;48.174;11.566;2023-07-24T09:01:42;95041.00;;;21.88;74.14
25420;BME280;13354;48.174;11.566;2023-07-24T09:04:07;95043.44;;;21.79;73.45
25420;BME280;13354;48.174;11.566;2023-07-24T09:06:33;95044.25;;;21.80;73.64
25420;BME280;13354;48.174;11.566;2023-07-24T09:08:58;95042.97;;;21.67;74.21
25420;BME280;13354;48.174;11.566;2023-07-24T09:11:24;95061.97;;;21.96;73.29
25420;BME280;13354;48.174;11.566;2023-07-24T09:13:49;95062.31;;;21.84;71.94
25420;BME280;13354;48.174;11.566;2023-07-24T09:16:25;95059.03;;;21.92;71.95
25420;BME280;13354;48.174;11.566;2023-07-24T09:18:52;95057.38;;;21.97;72.22
25420;BME280;13354;48.174;11.566;2023-07-24T09:21:30;95039.13;;;21.83;72.82
25420;BME280;13354;48.174;11.566;2023-07-24T09:23:55;95030.56;;;21.76;74.42
25420;BME280;13354;48.174;11.566;2023-07-24T09:26:21;95028.69;;;21.71;75.13
25420;BME280;13354;48.174;11.566;2023-07-24T09:28:53;95021.38;;;21.77;74.80
25420;BME280;13354;48.174;11.566;2023-07-24T09:31:19;95015.69;;;21.84;74.52
25420;BME280;13354;48.174;11.566;2023-07-24T09:33:44;95013.09;;;22.08;74.06
25420;BME280;13354;48.174;11.566;2023-07-24T09:36:10;95014.41;;;22.21;73.57
25420;BME280;13354;48.174;11.566;2023-07-24T09:38:36;95015.03;;;22.41;71.27
25420;BME280;13354;48.174;11.566;2023-07-24T09:41:03;95024.88;;;22.56;70.94
25420;BME280;13354;48.174;11.566;2023-07-24T09:43:29;95021.00;;;22.67;68.65
25420;BME280;13354;48.174;11.566;2023-07-24T09:45:56;95017.88;;;22.84;69.11
25420;BME280;13354;48.174;11.566;2023-07-24T09:48:24;95008.03;;;22.99;65.17
25420;BME280;13354;48.174;11.566;2023-07-24T09:50:55;95009.81;;;23.08;63.70
25420;BME280;13354;48.174;11.566;2023-07-24T09:53:38;95001.88;;;22.93;63.83
25420;BME280;13354;48.174;11.566;2023-07-24T09:56:06;94990.41;;;23.06;63.61
25420;BME280;13354;48.174;11.566;2023-07-24T09:58:38;94981.78;;;23.28;62.85
25420;BME280;13354;48.174;11.566;2023-07-24T10:01:07;94981.44;;;23.35;62.77
25420;BME280;13354;48.174;11.566;2023-07-24T10:03:40;94975.03;;;23.50;60.01
25420;BME280;13354;48.174;11.566;2023-07-24T10:06:08;94977.56;;;23.60;58.86
25420;BME280;13354;48.174;11.566;2023-07-24T10:08:38;94971.69;;;23.58;57.84
25420;BME280;13354;48.174;11.566;2023-07-24T10:11:04;94967.91;;;23.78;57.46
25420;BME280;13354;48.174;11.566;2023-07-24T10:13:30;94966.16;;;23.87;57.51
25420;BME280;13354;48.174;11.566;2023-07-24T10:15:56;94958.56;;;23.89;56.95
25420;BME280;13354;48.174;11.566;2023-07-24T10:18:28;94958.84;;;23.88;55.66
25420;BME280;13354;48.174;11.566;2023-07-24T10:21:02;94946.53;;;24.14;55.49
25420;BME280;13354;48.174;11.566;2023-07-24T10:23:28;94952.41;;;24.54;54.60
25420;BME280;13354;48.174;11.566;2023-07-24T10:25:53;94967.41;;;24.46;54.46
25420;BME280;13354;48.174;11.566;2023-07-24T10:28:19;94963.13;;;24.59;52.72
25420;BME280;13354;48.174;11.566;2023-07-24T10:30:55;94958.72;;;24.63;53.73
25420;BME280;13354;48.174;11.566;2023-07-24T10:33:21;94966.78;;;24.82;53.09
25420;BME280;13354;48.174;11.566;2023-07-24T10:35:49;94973.31;;;25.09;53.06
25420;BME280;13354;48.174;11.566;2023-07-24T10:38:16;94972.53;;;25.22;53.53
25420;BME280;13354;48.174;11.566;2023-07-24T10:40:45;94971.59;;;25.40;53.11
25420;BME280;13354;48.174;11.566;2023-07-24T10:43:13;94968.50;;;25.47;53.07
25420;BME280;13354;48.174;11.566;2023-07-24T10:45:48;94973.22;;;25.41;53.87
25420;BME280;13354;48.174;11.566;2023-07-24T10:48:18;94963.06;;;25.47;53.29
25420;BME280;13354;48.174;11.566;2023-07-24T10:50:46;94961.34;;;25.51;52.15
25420;BME280;13354;48.174;11.566;2023-07-24T10:53:14;94955.75;;;25.47;52.20
25420;BME280;13354;48.174;11.566;2023-07-24T10:55:41;94946.88;;;25.69;50.29
25420;BME280;13354;48.174;11.566;2023-07-24T10:58:07;94939.66;;;25.78;50.62
25420;BME280;13354;48.174;11.566;2023-07-24T11:00:33;94935.72;;;25.71;50.36
25420;BME280;13354;48.174;11.566;2023-07-24T11:02:59;94938.19;;;25.95;49.55
25420;BME280;13354;48.174;11.566;2023-07-24T11:05:24;94929.06;;;26.13;48.74
25420;BME280;13354;48.174;11.566;2023-07-24T11:07:50;94931.94;;;26.62;49.87
25420;BME280;13354;48.174;11.566;2023-07-24T11:10:20;94924.16;;;27.09;49.17
25420;BME280;13354;48.174;11.566;2023-07-24T11:12:45;94914.38;;;27.65;48.08
25420;BME280;13354;48.174;11.566;2023-07-24T11:15:13;94910.72;;;27.69;45.28
25420;BME280;13354;48.174;11.566;2023-07-24T11:17:40;94902.44;;;27.92;44.73
25420;BME280;13354;48.174;11.566;2023-07-24T11:20:11;94898.81;;;28.35;43.91
25420;BME280;13354;48.174;11.566;2023-07-24T11:22:44;94883.97;;;28.41;42.25
25420;BME280;13354;48.174;11.566;2023-07-24T11:25:10;94862.44;;;28.65;41.98
25420;BME280;13354;48.174;11.566;2023-07-24T11:27:40;94845.19;;;28.82;42.59
25420;BME280;13354;48.174;11.566;2023-07-24T11:30:07;94854.56;;;28.73;42.92
25420;BME280;13354;48.174;11.566;2023-07-24T11:32:32;94864.84;;;29.26;42.29
25420;BME280;13354;48.174;11.566;2023-07-24T11:34:58;94872.31;;;29.38;41.03
25420;BME280;13354;48.174;11.566;2023-07-24T11:37:25;94876.38;;;29.53;41.11
25420;BME280;13354;48.174;11.566;2023-07-24T11:39:58;94872.59;;;29.45;40.79
25420;BME280;13354;48.174;11.566;2023-07-24T11:42:27;94874.50;;;29.45;40.74
25420;BME280;13354;48.174;11.566;2023-07-24T11:44:53;94858.06;;;29.62;40.16
25420;BME280;13354;48.174;11.566;2023-07-24T11:47:18;94849.00;;;29.70;39.26
25420;BME280;13354;48.174;11.566;2023-07-24T11:49:43;94844.34;;;29.71;40.33
25420;BME280;13354;48.174;11.566;2023-07-24T11:52:13;94835.47;;;29.53;41.80
25420;BME280;13354;48.174;11.566;2023-07-24T11:54:39;94840.41;;;29.39;42.22
25420;BME280;13354;48.174;11.566;2023-07-24T11:57:17;94846.56;;;29.27;40.81
25420;BME280;13354;48.174;11.566;2023-07-24T11:59:43;94859.38;;;28.97;40.33
25420;BME280;13354;48.174;11.566;2023-07-24T12:02:11;94849.91;;;28.73;40.44
25420;BME280;13354;48.174;11.566;2023-07-24T12:04:37;94864.56;;;28.51;40.89
25420;BME280;13354;48.174;11.566;2023-07-24T12:07:07;94878.38;;;28.20;41.33
25420;BME280;13354;48.174;11.566;2023-07-24T12:09:33;94876.63;;;27.98;42.25
25420;BME280;13354;48.174;11.566;2023-07-24T12:11:58;94870.88;;;27.74;43.59
25420;BME280;13354;48.174;11.566;2023-07-24T12:14:24;94892.78;;;27.60;44.47
25420;BME280;13354;48.174;11.566;2023-07-24T12:17:00;94926.44;;;27.24;45.41
25420;BME280;13354;48.174;11.566;2023-07-24T12:19:25;94959.25;;;26.96;47.87
25420;BME280;13354;48.174;11.566;2023-07-24T12:21:51;94993.38;;;26.58;49.08
25420;BME280;13354;48.174;11.566;2023-07-24T12:24:16;95022.47;;;26.21;50.48
25420;BME280;13354;48.174;11.566;2023-07-24T12:26:41;95050.88;;;25.87;51.90
25420;BME280;13354;48.174;11.566;2023-07-24T12:29:07;95056.81;;;25.34;54.65
25420;BME280;13354;48.174;11.566;2023-07-24T12:31:32;95045.28;;;24.96;57.98
25420;BME280;13354;48.174;11.566;2023-07-24T12:33:57;95040.22;;;24.62;59.82
25420;BME280;13354;48.174;11.566;2023-07-24T12:36:23;95028.31;;;24.25;61.86
25420;BME280;13354;48.174;11.566;2023-07-24T12:38:48;94994.56;;;24.03;62.97
25420;BME280;13354;48.174;11.566;2023-07-24T12:41:14;94987.44;;;23.94;64.28
25420;BME280;13354;48.174;11.566;2023-07-24T12:43:39;94986.03;;;23.96;64.67
25420;BME280;13354;48.174;11.566;2023-07-24T12:46:04;94974.84;;;24.03;63.93